sensor_id;sensor_type;location;lat;lon;timestamp;P1;durP1;ratioP1;P2;durP2;ratioP2
63370;SDS011;49504;48.336;14.472;2023-04-25T00:00:13;2.75;;;1.08;;
63370;SDS011;49504;48.336;14.472;2023-04-25T00:03:35;2.00;;;0.82;;
63370;SDS011;49504;48.336;14.472;2023-04-25T00:06:56;2.92;;;1.23;;
63370;SDS011;49504;48.336;14.472;2023-04-25T00:10:17;3.63;;;1.10;;
63370;SDS011;49504;48.336;14.472;2023-04-25T00:13:38;2.80;;;1.10;;
63370;SDS011;49504;48.336;14.472;2023-04-25T00:17:01;2.85;;;1.27;;
63370;SDS011;49504;48.336;14.472;2023-04-25T00:20:22;2.75;;;1.00;;
63370;SDS011;49504;48.336;14.472;2023-04-25T00:23:43;2.30;;;1.02;;
63370;SDS011;49504;48.336;14.472;2023-04-25T00:27:04;2.67;;;1.13;;
63370;SDS011;49504;48.336;14.472;2023-04-25T00:34:38;2.28;;;0.90;;
63370;SDS011;49504;48.336;14.472;2023-04-25T00:37:59;1.83;;;0.80;;
63370;SDS011;49504;48.336;14.472;2023-04-25T00:41:20;2.30;;;1.00;;
63370;SDS011;49504;48.336;14.472;2023-04-25T00:44:42;2.20;;;0.80;;
63370;SDS011;49504;48.336;14.472;2023-04-25T00:48:04;2.42;;;0.95;;
63370;SDS011;49504;48.336;14.472;2023-04-25T00:51:27;2.25;;;1.00;;
63370;SDS011;49504;48.336;14.472;2023-04-25T00:54:48;2.63;;;1.17;;
63370;SDS011;49504;48.336;14.472;2023-04-25T00:58:09;2.47;;;0.93;;
63370;SDS011;49504;48.336;14.472;2023-04-25T01:01:30;3.10;;;1.23;;
63370;SDS011;49504;48.336;14.472;2023-04-25T01:04:52;2.53;;;0.98;;
63370;SDS011;49504;48.336;14.472;2023-04-25T01:08:15;2.53;;;0.93;;
63370;SDS011;49504;48.336;14.472;2023-04-25T01:11:39;2.92;;;1.05;;
63370;SDS011;49504;48.336;14.472;2023-04-25T01:15:00;3.10;;;1.23;;
63370;SDS011;49504;48.336;14.472;2023-04-25T01:18:21;2.72;;;1.02;;
63370;SDS011;49504;48.336;14.472;2023-04-25T01:21:44;2.58;;;1.00;;
63370;SDS011;49504;48.336;14.472;2023-04-25T01:25:06;2.47;;;1.05;;
63370;SDS011;49504;48.336;14.472;2023-04-25T01:28:28;2.92;;;1.23;;
63370;SDS011;49504;48.336;14.472;2023-04-25T01:34:38;2.30;;;0.93;;
63370;SDS011;49504;48.336;14.472;2023-04-25T01:37:59;3.05;;;0.95;;
63370;SDS011;49504;48.336;14.472;2023-04-25T01:41:20;2.45;;;1.02;;
63370;SDS011;49504;48.336;14.472;2023-04-25T01:44:42;2.58;;;1.00;;
63370;SDS011;49504;48.336;14.472;2023-04-25T01:48:03;2.78;;;1.20;;
63370;SDS011;49504;48.336;14.472;2023-04-25T01:51:26;2.50;;;1.00;;
63370;SDS011;49504;48.336;14.472;2023-04-25T01:54:47;2.60;;;1.02;;
63370;SDS011;49504;48.336;14.472;2023-04-25T01:58:09;2.67;;;0.98;;
63370;SDS011;49504;48.336;14.472;2023-04-25T02:01:51;2.35;;;0.95;;
63370;SDS011;49504;48.336;14.472;2023-04-25T02:05:19;2.60;;;0.98;;
63370;SDS011;49504;48.336;14.472;2023-04-25T02:08:42;2.15;;;0.80;;
63370;SDS011;49504;48.336;14.472;2023-04-25T02:12:07;2.53;;;0.90;;
63370;SDS011;49504;48.336;14.472;2023-04-25T02:15:58;2.42;;;0.93;;
63370;SDS011;49504;48.336;14.472;2023-04-25T02:19:26;1.75;;;0.63;;
63370;SDS011;49504;48.336;14.472;2023-04-25T02:22:48;2.08;;;0.80;;
63370;SDS011;49504;48.336;14.472;2023-04-25T02:26:09;2.80;;;1.17;;
63370;SDS011;49504;48.336;14.472;2023-04-25T02:29:30;2.58;;;1.23;;
63370;SDS011;49504;48.336;14.472;2023-04-25T02:32:51;2.60;;;1.00;;
63370;SDS011;49504;48.336;14.472;2023-04-25T02:36:14;2.40;;;1.00;;
63370;SDS011;49504;48.336;14.472;2023-04-25T02:39:35;2.17;;;0.80;;
63370;SDS011;49504;48.336;14.472;2023-04-25T02:42:56;2.17;;;0.85;;
63370;SDS011;49504;48.336;14.472;2023-04-25T02:46:20;2.80;;;1.10;;
63370;SDS011;49504;48.336;14.472;2023-04-25T02:49:41;2.83;;;1.10;;
63370;SDS011;49504;48.336;14.472;2023-04-25T02:53:04;2.60;;;0.98;;
63370;SDS011;49504;48.336;14.472;2023-04-25T02:56:31;2.53;;;0.90;;
63370;SDS011;49504;48.336;14.472;2023-04-25T02:59:52;2.78;;;1.10;;
63370;SDS011;49504;48.336;14.472;2023-04-25T03:03:14;2.42;;;1.00;;
63370;SDS011;49504;48.336;14.472;2023-04-25T03:06:35;2.45;;;0.90;;
63370;SDS011;49504;48.336;14.472;2023-04-25T03:09:57;2.15;;;0.90;;
63370;SDS011;49504;48.336;14.472;2023-04-25T03:13:19;2.08;;;0.80;;
63370;SDS011;49504;48.336;14.472;2023-04-25T03:16:40;2.25;;;0.95;;
63370;SDS011;49504;48.336;14.472;2023-04-25T03:20:01;2.40;;;0.80;;
63370;SDS011;49504;48.336;14.472;2023-04-25T03:23:24;2.13;;;0.77;;
63370;SDS011;49504;48.336;14.472;2023-04-25T03:26:47;2.30;;;0.80;;
63370;SDS011;49504;48.336;14.472;2023-04-25T03:30:08;2.15;;;0.93;;
63370;SDS011;49504;48.336;14.472;2023-04-25T03:33:31;2.53;;;1.00;;
63370;SDS011;49504;48.336;14.472;2023-04-25T03:36:52;2.42;;;0.98;;
63370;SDS011;49504;48.336;14.472;2023-04-25T03:40:14;2.13;;;0.85;;
63370;SDS011;49504;48.336;14.472;2023-04-25T03:44:05;8.55;;;1.20;;
63370;SDS011;49504;48.336;14.472;2023-04-25T03:47:27;2.08;;;0.80;;
63370;SDS011;49504;48.336;14.472;2023-04-25T03:51:31;2.95;;;1.02;;
63370;SDS011;49504;48.336;14.472;2023-04-25T03:54:56;3.05;;;0.90;;
63370;SDS011;49504;48.336;14.472;2023-04-25T03:58:19;2.45;;;0.82;;
63370;SDS011;49504;48.336;14.472;2023-04-25T04:01:40;2.63;;;1.15;;
63370;SDS011;49504;48.336;14.472;2023-04-25T04:05:01;2.65;;;1.00;;
63370;SDS011;49504;48.336;14.472;2023-04-25T04:11:29;5.85;;;1.95;;
63370;SDS011;49504;48.336;14.472;2023-04-25T04:14:50;6.13;;;1.85;;
63370;SDS011;49504;48.336;14.472;2023-04-25T04:18:11;5.57;;;1.55;;
63370;SDS011;49504;48.336;14.472;2023-04-25T04:23:29;11.90;;;2.70;;
63370;SDS011;49504;48.336;14.472;2023-04-25T04:26:52;8.87;;;2.97;;
63370;SDS011;49504;48.336;14.472;2023-04-25T04:34:57;9.52;;;3.25;;
63370;SDS011;49504;48.336;14.472;2023-04-25T04:38:19;12.48;;;3.60;;
63370;SDS011;49504;48.336;14.472;2023-04-25T04:41:42;10.02;;;3.20;;
63370;SDS011;49504;48.336;14.472;2023-04-25T04:45:07;14.47;;;4.50;;
63370;SDS011;49504;48.336;14.472;2023-04-25T04:48:41;9.40;;;4.15;;
63370;SDS011;49504;48.336;14.472;2023-04-25T04:52:22;11.88;;;3.10;;
63370;SDS011;49504;48.336;14.472;2023-04-25T04:55:54;15.90;;;4.00;;
63370;SDS011;49504;48.336;14.472;2023-04-25T04:59:22;10.52;;;3.75;;
63370;SDS011;49504;48.336;14.472;2023-04-25T05:03:02;8.80;;;3.25;;
63370;SDS011;49504;48.336;14.472;2023-04-25T05:06:33;13.63;;;4.43;;
63370;SDS011;49504;48.336;14.472;2023-04-25T05:10:25;11.30;;;3.17;;
63370;SDS011;49504;48.336;14.472;2023-04-25T05:14:12;10.80;;;3.53;;
63370;SDS011;49504;48.336;14.472;2023-04-25T05:17:36;11.95;;;3.47;;
63370;SDS011;49504;48.336;14.472;2023-04-25T05:21:13;11.05;;;3.35;;
63370;SDS011;49504;48.336;14.472;2023-04-25T05:24:41;7.57;;;3.20;;
63370;SDS011;49504;48.336;14.472;2023-04-25T05:28:22;8.38;;;3.55;;
63370;SDS011;49504;48.336;14.472;2023-04-25T05:32:02;7.47;;;2.88;;
63370;SDS011;49504;48.336;14.472;2023-04-25T05:35:24;8.65;;;2.85;;
63370;SDS011;49504;48.336;14.472;2023-04-25T05:38:45;8.82;;;2.97;;
63370;SDS011;49504;48.336;14.472;2023-04-25T05:42:15;6.50;;;2.55;;
63370;SDS011;49504;48.336;14.472;2023-04-25T05:47:24;11.27;;;2.97;;
63370;SDS011;49504;48.336;14.472;2023-04-25T05:51:15;7.47;;;3.10;;
63370;SDS011;49504;48.336;14.472;2023-04-25T05:54:59;8.20;;;2.40;;
63370;SDS011;49504;48.336;14.472;2023-04-25T05:58:21;6.95;;;2.47;;
63370;SDS011;49504;48.336;14.472;2023-04-25T06:01:42;8.98;;;2.80;;
63370;SDS011;49504;48.336;14.472;2023-04-25T06:05:05;8.63;;;3.00;;
63370;SDS011;49504;48.336;14.472;2023-04-25T06:08:26;7.93;;;2.67;;
63370;SDS011;49504;48.336;14.472;2023-04-25T06:11:48;7.75;;;2.70;;
63370;SDS011;49504;48.336;14.472;2023-04-25T06:15:09;10.45;;;2.80;;
63370;SDS011;49504;48.336;14.472;2023-04-25T06:18:30;9.30;;;2.97;;
63370;SDS011;49504;48.336;14.472;2023-04-25T06:21:53;7.65;;;2.75;;
63370;SDS011;49504;48.336;14.472;2023-04-25T06:25:15;7.20;;;2.88;;
63370;SDS011;49504;48.336;14.472;2023-04-25T06:28:36;8.88;;;2.70;;
63370;SDS011;49504;48.336;14.472;2023-04-25T06:31:58;8.88;;;2.63;;
63370;SDS011;49504;48.336;14.472;2023-04-25T06:35:19;6.97;;;2.65;;
63370;SDS011;49504;48.336;14.472;2023-04-25T06:38:42;4.70;;;2.03;;
63370;SDS011;49504;48.336;14.472;2023-04-25T06:42:05;5.70;;;1.75;;
63370;SDS011;49504;48.336;14.472;2023-04-25T06:48:42;6.43;;;2.13;;
63370;SDS011;49504;48.336;14.472;2023-04-25T06:52:05;6.95;;;2.72;;
63370;SDS011;49504;48.336;14.472;2023-04-25T06:55:26;7.90;;;2.60;;
63370;SDS011;49504;48.336;14.472;2023-04-25T06:59:01;7.15;;;2.33;;
63370;SDS011;49504;48.336;14.472;2023-04-25T07:02:27;8.40;;;3.00;;
63370;SDS011;49504;48.336;14.472;2023-04-25T07:05:50;6.57;;;2.17;;
63370;SDS011;49504;48.336;14.472;2023-04-25T07:09:12;6.70;;;2.50;;
63370;SDS011;49504;48.336;14.472;2023-04-25T07:12:36;6.93;;;2.35;;
63370;SDS011;49504;48.336;14.472;2023-04-25T07:15:57;7.13;;;2.40;;
63370;SDS011;49504;48.336;14.472;2023-04-25T07:19:18;8.93;;;2.67;;
63370;SDS011;49504;48.336;14.472;2023-04-25T07:22:41;7.78;;;2.60;;
63370;SDS011;49504;48.336;14.472;2023-04-25T07:26:03;7.63;;;2.90;;
63370;SDS011;49504;48.336;14.472;2023-04-25T07:29:25;9.98;;;2.83;;
63370;SDS011;49504;48.336;14.472;2023-04-25T07:32:46;7.68;;;3.15;;
63370;SDS011;49504;48.336;14.472;2023-04-25T07:36:08;8.30;;;2.63;;
63370;SDS011;49504;48.336;14.472;2023-04-25T07:39:30;7.40;;;2.47;;
63370;SDS011;49504;48.336;14.472;2023-04-25T07:42:52;9.77;;;3.50;;
63370;SDS011;49504;48.336;14.472;2023-04-25T07:46:20;10.40;;;3.50;;
63370;SDS011;49504;48.336;14.472;2023-04-25T07:49:41;7.30;;;3.03;;
63370;SDS011;49504;48.336;14.472;2023-04-25T07:53:03;7.53;;;2.70;;
63370;SDS011;49504;48.336;14.472;2023-04-25T07:56:33;8.27;;;2.45;;
63370;SDS011;49504;48.336;14.472;2023-04-25T07:59:55;6.70;;;2.83;;
63370;SDS011;49504;48.336;14.472;2023-04-25T08:03:16;7.50;;;3.22;;
63370;SDS011;49504;48.336;14.472;2023-04-25T08:06:38;10.07;;;2.92;;
63370;SDS011;49504;48.336;14.472;2023-04-25T08:10:07;9.75;;;3.38;;
63370;SDS011;49504;48.336;14.472;2023-04-25T08:13:30;10.18;;;3.70;;
63370;SDS011;49504;48.336;14.472;2023-04-25T08:16:53;9.40;;;3.30;;
63370;SDS011;49504;48.336;14.472;2023-04-25T08:20:14;9.20;;;3.50;;
63370;SDS011;49504;48.336;14.472;2023-04-25T08:23:36;8.80;;;3.15;;
63370;SDS011;49504;48.336;14.472;2023-04-25T08:27:04;9.10;;;3.30;;
63370;SDS011;49504;48.336;14.472;2023-04-25T08:30:26;5.18;;;2.45;;
63370;SDS011;49504;48.336;14.472;2023-04-25T08:33:48;8.13;;;3.22;;
63370;SDS011;49504;48.336;14.472;2023-04-25T08:37:15;9.05;;;2.80;;
63370;SDS011;49504;48.336;14.472;2023-04-25T08:40:48;8.00;;;3.08;;
63370;SDS011;49504;48.336;14.472;2023-04-25T08:44:11;7.68;;;2.75;;
63370;SDS011;49504;48.336;14.472;2023-04-25T08:47:34;9.48;;;3.50;;
63370;SDS011;49504;48.336;14.472;2023-04-25T08:50:59;7.32;;;2.90;;
63370;SDS011;49504;48.336;14.472;2023-04-25T08:54:23;7.13;;;2.72;;
63370;SDS011;49504;48.336;14.472;2023-04-25T08:57:47;7.50;;;3.20;;
63370;SDS011;49504;48.336;14.472;2023-04-25T09:01:10;7.53;;;3.03;;
63370;SDS011;49504;48.336;14.472;2023-04-25T09:04:42;6.63;;;2.45;;
63370;SDS011;49504;48.336;14.472;2023-04-25T09:08:04;6.32;;;3.15;;
63370;SDS011;49504;48.336;14.472;2023-04-25T09:11:25;9.43;;;3.03;;
63370;SDS011;49504;48.336;14.472;2023-04-25T09:15:04;8.43;;;2.88;;
63370;SDS011;49504;48.336;14.472;2023-04-25T09:20:40;8.35;;;3.10;;
63370;SDS011;49504;48.336;14.472;2023-04-25T09:26:28;8.15;;;3.10;;
63370;SDS011;49504;48.336;14.472;2023-04-25T09:29:56;8.55;;;3.15;;
63370;SDS011;49504;48.336;14.472;2023-04-25T09:33:19;6.00;;;3.05;;
63370;SDS011;49504;48.336;14.472;2023-04-25T09:36:43;8.98;;;3.03;;
63370;SDS011;49504;48.336;14.472;2023-04-25T09:40:33;6.55;;;2.80;;
63370;SDS011;49504;48.336;14.472;2023-04-25T09:44:07;8.82;;;3.30;;
63370;SDS011;49504;48.336;14.472;2023-04-25T09:49:26;6.75;;;2.88;;
63370;SDS011;49504;48.336;14.472;2023-04-25T09:53:02;7.57;;;2.83;;
63370;SDS011;49504;48.336;14.472;2023-04-25T09:56:27;7.22;;;2.67;;
63370;SDS011;49504;48.336;14.472;2023-04-25T09:59:55;7.53;;;2.60;;
63370;SDS011;49504;48.336;14.472;2023-04-25T10:03:17;7.22;;;2.92;;
63370;SDS011;49504;48.336;14.472;2023-04-25T10:06:59;7.75;;;2.50;;
63370;SDS011;49504;48.336;14.472;2023-04-25T10:10:20;6.57;;;2.40;;
63370;SDS011;49504;48.336;14.472;2023-04-25T10:13:42;9.23;;;2.67;;
63370;SDS011;49504;48.336;14.472;2023-04-25T10:17:04;8.23;;;2.83;;
63370;SDS011;49504;48.336;14.472;2023-04-25T10:20:25;5.05;;;2.28;;
63370;SDS011;49504;48.336;14.472;2023-04-25T10:23:47;5.78;;;2.60;;
63370;SDS011;49504;48.336;14.472;2023-04-25T10:27:09;5.70;;;2.63;;
63370;SDS011;49504;48.336;14.472;2023-04-25T10:30:31;5.88;;;2.40;;
63370;SDS011;49504;48.336;14.472;2023-04-25T10:33:52;6.43;;;2.47;;
63370;SDS011;49504;48.336;14.472;2023-04-25T10:37:14;4.82;;;2.10;;
63370;SDS011;49504;48.336;14.472;2023-04-25T10:40:36;7.00;;;2.28;;
63370;SDS011;49504;48.336;14.472;2023-04-25T10:43:59;7.72;;;2.70;;
63370;SDS011;49504;48.336;14.472;2023-04-25T10:47:20;6.00;;;2.38;;
63370;SDS011;49504;48.336;14.472;2023-04-25T10:51:06;4.97;;;1.93;;
63370;SDS011;49504;48.336;14.472;2023-04-25T10:54:42;5.90;;;2.50;;
63370;SDS011;49504;48.336;14.472;2023-04-25T10:58:06;3.92;;;1.50;;
63370;SDS011;49504;48.336;14.472;2023-04-25T11:01:28;4.25;;;1.50;;
63370;SDS011;49504;48.336;14.472;2023-04-25T11:04:58;5.30;;;2.15;;
63370;SDS011;49504;48.336;14.472;2023-04-25T11:08:21;44.53;;;12.50;;
63370;SDS011;49504;48.336;14.472;2023-04-25T11:11:57;20.23;;;6.57;;
63370;SDS011;49504;48.336;14.472;2023-04-25T11:15:19;12.57;;;4.45;;
63370;SDS011;49504;48.336;14.472;2023-04-25T11:18:41;14.88;;;3.88;;
63370;SDS011;49504;48.336;14.472;2023-04-25T11:23:43;18.08;;;5.28;;
63370;SDS011;49504;48.336;14.472;2023-04-25T11:27:06;9.88;;;4.55;;
63370;SDS011;49504;48.336;14.472;2023-04-25T11:30:27;10.90;;;3.33;;
63370;SDS011;49504;48.336;14.472;2023-04-25T11:33:48;13.02;;;3.90;;
63370;SDS011;49504;48.336;14.472;2023-04-25T11:37:09;13.50;;;4.82;;
63370;SDS011;49504;48.336;14.472;2023-04-25T11:41:26;10.32;;;3.30;;
63370;SDS011;49504;48.336;14.472;2023-04-25T11:44:47;10.07;;;3.22;;
63370;SDS011;49504;48.336;14.472;2023-04-25T11:49:19;12.20;;;4.03;;
63370;SDS011;49504;48.336;14.472;2023-04-25T11:52:41;10.48;;;3.20;;
63370;SDS011;49504;48.336;14.472;2023-04-25T11:56:08;15.60;;;4.55;;
63370;SDS011;49504;48.336;14.472;2023-04-25T11:59:30;11.55;;;3.70;;
63370;SDS011;49504;48.336;14.472;2023-04-25T12:02:52;10.30;;;3.47;;
63370;SDS011;49504;48.336;14.472;2023-04-25T12:06:17;10.10;;;3.33;;
63370;SDS011;49504;48.336;14.472;2023-04-25T12:09:38;8.40;;;2.65;;
63370;SDS011;49504;48.336;14.472;2023-04-25T12:12:59;7.95;;;2.97;;
63370;SDS011;49504;48.336;14.472;2023-04-25T12:16:20;9.45;;;3.25;;
63370;SDS011;49504;48.336;14.472;2023-04-25T12:19:41;8.02;;;2.97;;
63370;SDS011;49504;48.336;14.472;2023-04-25T12:23:06;7.15;;;2.88;;
63370;SDS011;49504;48.336;14.472;2023-04-25T12:26:33;6.15;;;2.75;;
63370;SDS011;49504;48.336;14.472;2023-04-25T12:30:10;7.15;;;2.13;;
63370;SDS011;49504;48.336;14.472;2023-04-25T12:33:32;7.35;;;2.17;;
63370;SDS011;49504;48.336;14.472;2023-04-25T12:36:55;8.15;;;2.40;;
63370;SDS011;49504;48.336;14.472;2023-04-25T12:40:17;6.55;;;2.20;;
63370;SDS011;49504;48.336;14.472;2023-04-25T12:43:38;5.15;;;1.85;;
63370;SDS011;49504;48.336;14.472;2023-04-25T12:46:59;6.25;;;1.83;;
63370;SDS011;49504;48.336;14.472;2023-04-25T12:50:21;5.72;;;1.83;;
63370;SDS011;49504;48.336;14.472;2023-04-25T12:53:42;5.97;;;2.10;;
63370;SDS011;49504;48.336;14.472;2023-04-25T12:57:04;6.20;;;1.90;;
63370;SDS011;49504;48.336;14.472;2023-04-25T13:00:25;6.28;;;1.92;;
63370;SDS011;49504;48.336;14.472;2023-04-25T13:03:46;8.63;;;2.55;;
63370;SDS011;49504;48.336;14.472;2023-04-25T13:07:08;4.35;;;1.55;;
63370;SDS011;49504;48.336;14.472;2023-04-25T13:10:29;5.15;;;2.28;;
63370;SDS011;49504;48.336;14.472;2023-04-25T13:16:54;3.92;;;1.52;;
63370;SDS011;49504;48.336;14.472;2023-04-25T13:20:15;5.18;;;1.63;;
63370;SDS011;49504;48.336;14.472;2023-04-25T13:23:36;5.85;;;2.10;;
63370;SDS011;49504;48.336;14.472;2023-04-25T13:26:58;4.20;;;1.70;;
63370;SDS011;49504;48.336;14.472;2023-04-25T13:30:19;6.15;;;1.73;;
63370;SDS011;49504;48.336;14.472;2023-04-25T13:34:51;3.75;;;1.25;;
63370;SDS011;49504;48.336;14.472;2023-04-25T13:38:13;5.72;;;1.85;;
63370;SDS011;49504;48.336;14.472;2023-04-25T13:41:34;5.07;;;1.50;;
63370;SDS011;49504;48.336;14.472;2023-04-25T13:44:55;5.00;;;2.05;;
63370;SDS011;49504;48.336;14.472;2023-04-25T13:48:16;5.35;;;1.90;;
63370;SDS011;49504;48.336;14.472;2023-04-25T13:51:40;5.28;;;2.28;;
63370;SDS011;49504;48.336;14.472;2023-04-25T13:55:01;5.88;;;1.60;;
63370;SDS011;49504;48.336;14.472;2023-04-25T13:58:25;5.32;;;2.00;;
63370;SDS011;49504;48.336;14.472;2023-04-25T14:04:36;5.38;;;1.40;;
63370;SDS011;49504;48.336;14.472;2023-04-25T14:07:58;5.22;;;1.92;;
63370;SDS011;49504;48.336;14.472;2023-04-25T14:11:20;5.32;;;1.50;;
63370;SDS011;49504;48.336;14.472;2023-04-25T14:16:44;4.25;;;1.55;;
63370;SDS011;49504;48.336;14.472;2023-04-25T14:20:09;4.20;;;1.40;;
63370;SDS011;49504;48.336;14.472;2023-04-25T14:23:31;5.00;;;1.70;;
63370;SDS011;49504;48.336;14.472;2023-04-25T14:26:52;4.55;;;1.40;;
63370;SDS011;49504;48.336;14.472;2023-04-25T14:32:59;3.83;;;1.30;;
63370;SDS011;49504;48.336;14.472;2023-04-25T14:36:26;4.75;;;1.40;;
63370;SDS011;49504;48.336;14.472;2023-04-25T14:39:48;4.72;;;1.40;;
63370;SDS011;49504;48.336;14.472;2023-04-25T14:43:09;3.50;;;1.42;;
63370;SDS011;49504;48.336;14.472;2023-04-25T14:46:30;3.85;;;1.13;;
63370;SDS011;49504;48.336;14.472;2023-04-25T14:49:53;3.22;;;1.33;;
63370;SDS011;49504;48.336;14.472;2023-04-25T14:53:14;3.65;;;1.20;;
63370;SDS011;49504;48.336;14.472;2023-04-25T14:56:35;3.22;;;1.10;;
63370;SDS011;49504;48.336;14.472;2023-04-25T14:59:57;3.78;;;1.30;;
63370;SDS011;49504;48.336;14.472;2023-04-25T15:03:18;3.80;;;1.30;;
63370;SDS011;49504;48.336;14.472;2023-04-25T15:06:40;5.28;;;1.50;;
63370;SDS011;49504;48.336;14.472;2023-04-25T15:10:02;3.97;;;1.10;;
63370;SDS011;49504;48.336;14.472;2023-04-25T15:13:23;4.03;;;1.30;;
63370;SDS011;49504;48.336;14.472;2023-04-25T15:16:45;4.75;;;0.85;;
63370;SDS011;49504;48.336;14.472;2023-04-25T15:20:07;4.03;;;1.45;;
63370;SDS011;49504;48.336;14.472;2023-04-25T15:23:31;3.03;;;0.98;;
63370;SDS011;49504;48.336;14.472;2023-04-25T15:28:03;3.38;;;1.08;;
63370;SDS011;49504;48.336;14.472;2023-04-25T15:31:24;3.45;;;1.20;;
63370;SDS011;49504;48.336;14.472;2023-04-25T15:34:46;3.47;;;1.17;;
63370;SDS011;49504;48.336;14.472;2023-04-25T15:38:07;4.10;;;1.50;;
63370;SDS011;49504;48.336;14.472;2023-04-25T15:41:28;4.15;;;1.20;;
63370;SDS011;49504;48.336;14.472;2023-04-25T15:44:51;3.75;;;1.33;;
63370;SDS011;49504;48.336;14.472;2023-04-25T15:50:29;2.97;;;0.95;;
63370;SDS011;49504;48.336;14.472;2023-04-25T15:53:51;3.97;;;1.23;;
63370;SDS011;49504;48.336;14.472;2023-04-25T15:57:17;3.25;;;1.00;;
63370;SDS011;49504;48.336;14.472;2023-04-25T16:00:38;3.47;;;1.00;;
63370;SDS011;49504;48.336;14.472;2023-04-25T16:04:00;3.25;;;0.95;;
63370;SDS011;49504;48.336;14.472;2023-04-25T16:07:22;2.20;;;0.80;;
63370;SDS011;49504;48.336;14.472;2023-04-25T16:10:43;3.47;;;1.00;;
63370;SDS011;49504;48.336;14.472;2023-04-25T16:14:04;2.58;;;0.90;;
63370;SDS011;49504;48.336;14.472;2023-04-25T16:17:25;2.83;;;1.00;;
63370;SDS011;49504;48.336;14.472;2023-04-25T16:23:20;3.22;;;1.15;;
63370;SDS011;49504;48.336;14.472;2023-04-25T16:26:42;3.03;;;0.90;;
63370;SDS011;49504;48.336;14.472;2023-04-25T16:30:03;3.08;;;0.95;;
63370;SDS011;49504;48.336;14.472;2023-04-25T16:33:26;3.75;;;0.80;;
63370;SDS011;49504;48.336;14.472;2023-04-25T16:36:47;3.67;;;1.20;;
63370;SDS011;49504;48.336;14.472;2023-04-25T16:40:10;6.03;;;1.75;;
63370;SDS011;49504;48.336;14.472;2023-04-25T16:43:32;6.47;;;2.05;;
63370;SDS011;49504;48.336;14.472;2023-04-25T16:46:54;6.68;;;1.83;;
63370;SDS011;49504;48.336;14.472;2023-04-25T16:50:17;6.13;;;1.45;;
63370;SDS011;49504;48.336;14.472;2023-04-25T16:53:39;4.55;;;1.58;;
63370;SDS011;49504;48.336;14.472;2023-04-25T16:57:05;5.70;;;1.50;;
63370;SDS011;49504;48.336;14.472;2023-04-25T17:00:26;4.40;;;1.38;;
63370;SDS011;49504;48.336;14.472;2023-04-25T17:03:47;5.95;;;1.60;;
63370;SDS011;49504;48.336;14.472;2023-04-25T17:07:08;4.82;;;1.50;;
63370;SDS011;49504;48.336;14.472;2023-04-25T17:10:29;4.00;;;1.27;;
63370;SDS011;49504;48.336;14.472;2023-04-25T17:13:53;3.95;;;1.10;;
63370;SDS011;49504;48.336;14.472;2023-04-25T17:17:14;3.97;;;1.20;;
63370;SDS011;49504;48.336;14.472;2023-04-25T17:20:36;5.43;;;1.55;;
63370;SDS011;49504;48.336;14.472;2023-04-25T17:25:12;6.57;;;1.95;;
63370;SDS011;49504;48.336;14.472;2023-04-25T17:28:33;4.82;;;1.17;;
63370;SDS011;49504;48.336;14.472;2023-04-25T17:31:54;4.93;;;1.42;;
63370;SDS011;49504;48.336;14.472;2023-04-25T17:35:15;4.82;;;1.60;;
63370;SDS011;49504;48.336;14.472;2023-04-25T17:38:36;4.10;;;1.10;;
63370;SDS011;49504;48.336;14.472;2023-04-25T17:41:59;5.32;;;1.60;;
63370;SDS011;49504;48.336;14.472;2023-04-25T17:45:20;4.07;;;1.33;;
63370;SDS011;49504;48.336;14.472;2023-04-25T17:48:41;5.25;;;1.38;;
63370;SDS011;49504;48.336;14.472;2023-04-25T17:52:03;4.95;;;1.20;;
63370;SDS011;49504;48.336;14.472;2023-04-25T17:55:24;4.93;;;1.42;;
63370;SDS011;49504;48.336;14.472;2023-04-25T17:58:47;5.57;;;1.80;;
63370;SDS011;49504;48.336;14.472;2023-04-25T18:02:21;5.65;;;1.20;;
63370;SDS011;49504;48.336;14.472;2023-04-25T18:05:42;4.82;;;1.50;;
63370;SDS011;49504;48.336;14.472;2023-04-25T18:09:04;4.78;;;1.52;;
63370;SDS011;49504;48.336;14.472;2023-04-25T18:12:26;6.50;;;1.60;;
63370;SDS011;49504;48.336;14.472;2023-04-25T18:17:50;3.95;;;1.30;;
63370;SDS011;49504;48.336;14.472;2023-04-25T18:21:11;6.82;;;1.42;;
63370;SDS011;49504;48.336;14.472;2023-04-25T18:24:32;3.35;;;1.20;;
63370;SDS011;49504;48.336;14.472;2023-04-25T18:27:53;3.88;;;1.58;;
63370;SDS011;49504;48.336;14.472;2023-04-25T18:31:15;3.83;;;1.10;;
63370;SDS011;49504;48.336;14.472;2023-04-25T18:34:37;5.05;;;1.90;;
63370;SDS011;49504;48.336;14.472;2023-04-25T18:37:58;4.45;;;1.48;;
63370;SDS011;49504;48.336;14.472;2023-04-25T18:41:19;4.20;;;1.05;;
63370;SDS011;49504;48.336;14.472;2023-04-25T18:44:41;3.90;;;1.10;;
63370;SDS011;49504;48.336;14.472;2023-04-25T18:48:02;5.30;;;1.25;;
63370;SDS011;49504;48.336;14.472;2023-04-25T18:51:25;3.60;;;1.00;;
63370;SDS011;49504;48.336;14.472;2023-04-25T18:54:47;4.10;;;1.20;;
63370;SDS011;49504;48.336;14.472;2023-04-25T18:58:09;2.53;;;0.90;;
63370;SDS011;49504;48.336;14.472;2023-04-25T19:01:30;3.38;;;0.95;;
63370;SDS011;49504;48.336;14.472;2023-04-25T19:04:51;4.20;;;1.20;;
63370;SDS011;49504;48.336;14.472;2023-04-25T19:08:13;3.40;;;1.08;;
63370;SDS011;49504;48.336;14.472;2023-04-25T19:11:34;4.10;;;0.95;;
63370;SDS011;49504;48.336;14.472;2023-04-25T19:14:55;3.70;;;1.23;;
63370;SDS011;49504;48.336;14.472;2023-04-25T19:18:17;3.55;;;1.00;;
63370;SDS011;49504;48.336;14.472;2023-04-25T19:21:38;3.45;;;0.93;;
63370;SDS011;49504;48.336;14.472;2023-04-25T19:25:32;3.13;;;0.90;;
63370;SDS011;49504;48.336;14.472;2023-04-25T19:29:03;4.63;;;1.30;;
63370;SDS011;49504;48.336;14.472;2023-04-25T19:32:27;2.90;;;1.15;;
63370;SDS011;49504;48.336;14.472;2023-04-25T19:35:48;3.42;;;1.40;;
63370;SDS011;49504;48.336;14.472;2023-04-25T19:39:09;3.05;;;1.00;;
63370;SDS011;49504;48.336;14.472;2023-04-25T19:42:32;4.20;;;1.02;;
63370;SDS011;49504;48.336;14.472;2023-04-25T19:45:53;2.90;;;1.15;;
63370;SDS011;49504;48.336;14.472;2023-04-25T19:49:14;3.47;;;1.33;;
63370;SDS011;49504;48.336;14.472;2023-04-25T19:52:35;3.40;;;1.25;;
63370;SDS011;49504;48.336;14.472;2023-04-25T19:55:57;5.03;;;1.30;;
63370;SDS011;49504;48.336;14.472;2023-04-25T19:59:20;3.47;;;0.95;;
63370;SDS011;49504;48.336;14.472;2023-04-25T20:02:42;3.30;;;1.00;;
63370;SDS011;49504;48.336;14.472;2023-04-25T20:06:03;3.58;;;1.13;;
63370;SDS011;49504;48.336;14.472;2023-04-25T20:09:24;4.70;;;1.20;;
63370;SDS011;49504;48.336;14.472;2023-04-25T20:12:46;3.38;;;1.40;;
63370;SDS011;49504;48.336;14.472;2023-04-25T20:16:08;4.35;;;1.23;;
63370;SDS011;49504;48.336;14.472;2023-04-25T20:19:29;3.38;;;1.35;;
63370;SDS011;49504;48.336;14.472;2023-04-25T20:22:51;3.67;;;1.50;;
63370;SDS011;49504;48.336;14.472;2023-04-25T20:26:12;3.83;;;1.30;;
63370;SDS011;49504;48.336;14.472;2023-04-25T20:29:33;4.65;;;1.40;;
63370;SDS011;49504;48.336;14.472;2023-04-25T20:32:56;2.88;;;1.13;;
63370;SDS011;49504;48.336;14.472;2023-04-25T20:36:17;3.70;;;1.17;;
63370;SDS011;49504;48.336;14.472;2023-04-25T20:39:38;3.78;;;1.10;;
63370;SDS011;49504;48.336;14.472;2023-04-25T20:42:59;3.03;;;1.30;;
63370;SDS011;49504;48.336;14.472;2023-04-25T20:46:20;3.67;;;1.40;;
63370;SDS011;49504;48.336;14.472;2023-04-25T20:49:43;3.83;;;1.40;;
63370;SDS011;49504;48.336;14.472;2023-04-25T20:53:04;3.45;;;1.13;;
63370;SDS011;49504;48.336;14.472;2023-04-25T20:56:25;4.20;;;1.58;;
63370;SDS011;49504;48.336;14.472;2023-04-25T20:59:46;4.95;;;1.55;;